sensor_id;sensor_type;location;lat;lon;timestamp;P1;durP1;ratioP1;P2;durP2;ratioP2
24008;SDS011;12217;50.792;4.372;2023-08-12T00:01:01;8.80;;;5.22;;
24008;SDS011;12217;50.792;4.372;2023-08-12T00:03:27;10.05;;;5.93;;
24008;SDS011;12217;50.792;4.372;2023-08-12T00:05:52;9.10;;;5.32;;
24008;SDS011;12217;50.792;4.372;2023-08-12T00:08:18;9.55;;;5.90;;
24008;SDS011;12217;50.792;4.372;2023-08-12T00:10:44;10.40;;;5.38;;
24008;SDS011;12217;50.792;4.372;2023-08-12T00:13:10;11.63;;;6.20;;
24008;SDS011;12217;50.792;4.372;2023-08-12T00:15:38;9.15;;;5.32;;
24008;SDS011;12217;50.792;4.372;2023-08-12T00:18:05;11.82;;;6.03;;
24008;SDS011;12217;50.792;4.372;2023-08-12T00:20:31;10.60;;;5.63;;
24008;SDS011;12217;50.792;4.372;2023-08-12T00:22:57;11.43;;;6.43;;
24008;SDS011;12217;50.792;4.372;2023-08-12T00:25:23;12.27;;;5.88;;
24008;SDS011;12217;50.792;4.372;2023-08-12T00:27:48;10.73;;;5.70;;
24008;SDS011;12217;50.792;4.372;2023-08-12T00:30:14;10.52;;;6.05;;
24008;SDS011;12217;50.792;4.372;2023-08-12T00:32:40;11.75;;;6.43;;
24008;SDS011;12217;50.792;4.372;2023-08-12T00:35:06;11.73;;;7.00;;
24008;SDS011;12217;50.792;4.372;2023-08-12T00:37:32;14.48;;;6.30;;
24008;SDS011;12217;50.792;4.372;2023-08-12T00:39:58;11.38;;;6.60;;
24008;SDS011;12217;50.792;4.372;2023-08-12T00:42:23;10.05;;;6.25;;
24008;SDS011;12217;50.792;4.372;2023-08-12T00:44:49;9.77;;;6.03;;
24008;SDS011;12217;50.792;4.372;2023-08-12T00:47:15;10.30;;;5.90;;
24008;SDS011;12217;50.792;4.372;2023-08-12T00:49:41;12.93;;;6.20;;
24008;SDS011;12217;50.792;4.372;2023-08-12T00:52:11;9.63;;;6.10;;
24008;SDS011;12217;50.792;4.372;2023-08-12T00:54:38;9.07;;;5.57;;
24008;SDS011;12217;50.792;4.372;2023-08-12T00:57:03;8.18;;;5.75;;
24008;SDS011;12217;50.792;4.372;2023-08-12T00:59:30;11.02;;;5.78;;
24008;SDS011;12217;50.792;4.372;2023-08-12T01:01:57;9.68;;;5.88;;
24008;SDS011;12217;50.792;4.372;2023-08-12T01:04:23;9.38;;;6.30;;
24008;SDS011;12217;50.792;4.372;2023-08-12T01:06:49;11.10;;;6.30;;
24008;SDS011;12217;50.792;4.372;2023-08-12T01:09:15;12.40;;;6.05;;
24008;SDS011;12217;50.792;4.372;2023-08-12T01:14:23;12.65;;;6.63;;
24008;SDS011;12217;50.792;4.372;2023-08-12T01:16:56;9.98;;;6.78;;
24008;SDS011;12217;50.792;4.372;2023-08-12T01:19:34;10.95;;;6.78;;
24008;SDS011;12217;50.792;4.372;2023-08-12T01:22:02;9.27;;;6.15;;
24008;SDS011;12217;50.792;4.372;2023-08-12T01:24:36;10.93;;;6.32;;
24008;SDS011;12217;50.792;4.372;2023-08-12T01:27:02;12.75;;;6.55;;
24008;SDS011;12217;50.792;4.372;2023-08-12T01:29:29;9.18;;;6.03;;
24008;SDS011;12217;50.792;4.372;2023-08-12T01:32:14;16.02;;;6.85;;
24008;SDS011;12217;50.792;4.372;2023-08-12T01:37:30;12.48;;;6.85;;
24008;SDS011;12217;50.792;4.372;2023-08-12T01:40:00;12.38;;;7.22;;
24008;SDS011;12217;50.792;4.372;2023-08-12T01:42:29;11.38;;;7.20;;
24008;SDS011;12217;50.792;4.372;2023-08-12T01:44:57;11.35;;;7.63;;
24008;SDS011;12217;50.792;4.372;2023-08-12T01:47:22;11.38;;;8.02;;
24008;SDS011;12217;50.792;4.372;2023-08-12T01:49:48;17.02;;;8.02;;
24008;SDS011;12217;50.792;4.372;2023-08-12T01:52:14;15.93;;;8.23;;
24008;SDS011;12217;50.792;4.372;2023-08-12T01:54:40;12.95;;;8.57;;
24008;SDS011;12217;50.792;4.372;2023-08-12T01:57:06;12.10;;;8.38;;
24008;SDS011;12217;50.792;4.372;2023-08-12T01:59:33;12.55;;;8.15;;
24008;SDS011;12217;50.792;4.372;2023-08-12T02:01:59;12.93;;;7.45;;
24008;SDS011;12217;50.792;4.372;2023-08-12T02:04:25;11.52;;;7.68;;
24008;SDS011;12217;50.792;4.372;2023-08-12T02:06:51;12.07;;;7.18;;
24008;SDS011;12217;50.792;4.372;2023-08-12T02:09:17;10.50;;;7.47;;
24008;SDS011;12217;50.792;4.372;2023-08-12T02:11:43;16.00;;;8.45;;
24008;SDS011;12217;50.792;4.372;2023-08-12T02:14:09;13.10;;;7.63;;
24008;SDS011;12217;50.792;4.372;2023-08-12T02:16:34;15.18;;;8.30;;
24008;SDS011;12217;50.792;4.372;2023-08-12T02:19:00;10.95;;;7.72;;
24008;SDS011;12217;50.792;4.372;2023-08-12T02:21:25;11.45;;;8.30;;
24008;SDS011;12217;50.792;4.372;2023-08-12T02:23:51;13.35;;;8.25;;
24008;SDS011;12217;50.792;4.372;2023-08-12T02:26:17;14.32;;;8.75;;
24008;SDS011;12217;50.792;4.372;2023-08-12T02:28:42;11.57;;;7.75;;
24008;SDS011;12217;50.792;4.372;2023-08-12T02:31:08;14.80;;;9.13;;
24008;SDS011;12217;50.792;4.372;2023-08-12T02:33:33;13.48;;;8.20;;
24008;SDS011;12217;50.792;4.372;2023-08-12T02:35:59;13.88;;;8.50;;
24008;SDS011;12217;50.792;4.372;2023-08-12T02:38:25;13.38;;;8.95;;
24008;SDS011;12217;50.792;4.372;2023-08-12T02:40:50;14.50;;;9.10;;
24008;SDS011;12217;50.792;4.372;2023-08-12T02:43:16;15.55;;;9.00;;
24008;SDS011;12217;50.792;4.372;2023-08-12T02:45:42;12.93;;;9.27;;
24008;SDS011;12217;50.792;4.372;2023-08-12T02:48:11;12.07;;;8.77;;
24008;SDS011;12217;50.792;4.372;2023-08-12T02:50:37;14.07;;;8.98;;
24008;SDS011;12217;50.792;4.372;2023-08-12T02:53:04;14.95;;;9.52;;
24008;SDS011;12217;50.792;4.372;2023-08-12T02:55:30;12.23;;;9.27;;
24008;SDS011;12217;50.792;4.372;2023-08-12T02:57:57;11.27;;;8.73;;
24008;SDS011;12217;50.792;4.372;2023-08-12T03:00:26;14.07;;;9.00;;
24008;SDS011;12217;50.792;4.372;2023-08-12T03:02:52;16.25;;;8.88;;
24008;SDS011;12217;50.792;4.372;2023-08-12T03:05:18;12.82;;;8.40;;
24008;SDS011;12217;50.792;4.372;2023-08-12T03:07:44;11.88;;;8.68;;
24008;SDS011;12217;50.792;4.372;2023-08-12T03:10:10;12.27;;;8.25;;
24008;SDS011;12217;50.792;4.372;2023-08-12T03:12:36;15.25;;;9.18;;
24008;SDS011;12217;50.792;4.372;2023-08-12T03:15:02;12.57;;;9.27;;
24008;SDS011;12217;50.792;4.372;2023-08-12T03:17:28;13.20;;;9.10;;
24008;SDS011;12217;50.792;4.372;2023-08-12T03:19:54;13.45;;;9.13;;
24008;SDS011;12217;50.792;4.372;2023-08-12T03:22:20;17.00;;;9.85;;
24008;SDS011;12217;50.792;4.372;2023-08-12T03:24:46;13.73;;;9.88;;
24008;SDS011;12217;50.792;4.372;2023-08-12T03:27:12;16.90;;;9.95;;
24008;SDS011;12217;50.792;4.372;2023-08-12T03:29:38;11.93;;;10.43;;
24008;SDS011;12217;50.792;4.372;2023-08-12T03:32:04;15.80;;;11.10;;
24008;SDS011;12217;50.792;4.372;2023-08-12T03:34:29;15.52;;;10.73;;
24008;SDS011;12217;50.792;4.372;2023-08-12T03:36:55;13.07;;;9.73;;
24008;SDS011;12217;50.792;4.372;2023-08-12T03:39:21;17.95;;;9.68;;
24008;SDS011;12217;50.792;4.372;2023-08-12T03:41:46;14.70;;;9.82;;
24008;SDS011;12217;50.792;4.372;2023-08-12T03:44:12;17.77;;;10.00;;
24008;SDS011;12217;50.792;4.372;2023-08-12T03:46:38;10.63;;;8.73;;
24008;SDS011;12217;50.792;4.372;2023-08-12T03:49:04;10.40;;;8.45;;
24008;SDS011;12217;50.792;4.372;2023-08-12T03:51:29;10.55;;;8.48;;
24008;SDS011;12217;50.792;4.372;2023-08-12T03:53:55;11.63;;;8.80;;
24008;SDS011;12217;50.792;4.372;2023-08-12T03:56:21;10.75;;;8.63;;
24008;SDS011;12217;50.792;4.372;2023-08-12T03:58:46;8.70;;;7.80;;
24008;SDS011;12217;50.792;4.372;2023-08-12T04:01:12;8.73;;;7.72;;
24008;SDS011;12217;50.792;4.372;2023-08-12T04:03:37;8.00;;;7.30;;
24008;SDS011;12217;50.792;4.372;2023-08-12T04:06:03;8.98;;;8.07;;
24008;SDS011;12217;50.792;4.372;2023-08-12T04:08:29;8.70;;;7.72;;
24008;SDS011;12217;50.792;4.372;2023-08-12T04:10:55;9.18;;;7.47;;
24008;SDS011;12217;50.792;4.372;2023-08-12T04:13:21;10.13;;;6.95;;
24008;SDS011;12217;50.792;4.372;2023-08-12T04:15:50;8.65;;;7.13;;
24008;SDS011;12217;50.792;4.372;2023-08-12T04:18:18;8.48;;;7.13;;
24008;SDS011;12217;50.792;4.372;2023-08-12T04:20:53;7.38;;;6.47;;
24008;SDS011;12217;50.792;4.372;2023-08-12T04:23:19;11.07;;;7.90;;
24008;SDS011;12217;50.792;4.372;2023-08-12T04:25:46;7.70;;;6.95;;
24008;SDS011;12217;50.792;4.372;2023-08-12T04:28:13;7.60;;;6.80;;
24008;SDS011;12217;50.792;4.372;2023-08-12T04:30:42;6.93;;;6.22;;
24008;SDS011;12217;50.792;4.372;2023-08-12T04:33:08;6.82;;;6.18;;
24008;SDS011;12217;50.792;4.372;2023-08-12T04:35:34;6.55;;;5.55;;
24008;SDS011;12217;50.792;4.372;2023-08-12T04:38:00;5.90;;;5.20;;
24008;SDS011;12217;50.792;4.372;2023-08-12T04:40:25;6.03;;;5.43;;
24008;SDS011;12217;50.792;4.372;2023-08-12T04:42:51;6.07;;;5.47;;
24008;SDS011;12217;50.792;4.372;2023-08-12T04:45:16;6.78;;;5.50;;
24008;SDS011;12217;50.792;4.372;2023-08-12T04:47:42;6.35;;;5.35;;
24008;SDS011;12217;50.792;4.372;2023-08-12T04:50:08;5.15;;;4.75;;
24008;SDS011;12217;50.792;4.372;2023-08-12T04:52:33;5.70;;;5.05;;
24008;SDS011;12217;50.792;4.372;2023-08-12T04:54:59;5.78;;;5.28;;
24008;SDS011;12217;50.792;4.372;2023-08-12T04:57:25;5.50;;;5.00;;
24008;SDS011;12217;50.792;4.372;2023-08-12T04:59:50;5.90;;;5.32;;
24008;SDS011;12217;50.792;4.372;2023-08-12T05:02:16;6.28;;;5.63;;
24008;SDS011;12217;50.792;4.372;2023-08-12T05:04:47;7.95;;;6.35;;
24008;SDS011;12217;50.792;4.372;2023-08-12T05:07:16;7.63;;;6.93;;
24008;SDS011;12217;50.792;4.372;2023-08-12T05:09:42;8.90;;;7.07;;
24008;SDS011;12217;50.792;4.372;2023-08-12T05:12:11;7.78;;;7.05;;
24008;SDS011;12217;50.792;4.372;2023-08-12T05:14:37;9.00;;;7.68;;
24008;SDS011;12217;50.792;4.372;2023-08-12T05:17:05;8.90;;;7.90;;
24008;SDS011;12217;50.792;4.372;2023-08-12T05:19:30;9.65;;;8.60;;
24008;SDS011;12217;50.792;4.372;2023-08-12T05:21:56;11.63;;;9.20;;
24008;SDS011;12217;50.792;4.372;2023-08-12T05:24:22;10.05;;;9.10;;
24008;SDS011;12217;50.792;4.372;2023-08-12T05:26:48;11.30;;;9.52;;
24008;SDS011;12217;50.792;4.372;2023-08-12T05:29:13;9.45;;;8.52;;
24008;SDS011;12217;50.792;4.372;2023-08-12T05:31:39;9.82;;;8.70;;
24008;SDS011;12217;50.792;4.372;2023-08-12T05:34:05;10.38;;;8.65;;
24008;SDS011;12217;50.792;4.372;2023-08-12T05:36:30;8.57;;;7.72;;
24008;SDS011;12217;50.792;4.372;2023-08-12T05:38:56;9.13;;;8.20;;
24008;SDS011;12217;50.792;4.372;2023-08-12T05:41:22;10.90;;;8.20;;
24008;SDS011;12217;50.792;4.372;2023-08-12T05:43:48;9.35;;;8.40;;
24008;SDS011;12217;50.792;4.372;2023-08-12T05:46:14;9.15;;;8.23;;
24008;SDS011;12217;50.792;4.372;2023-08-12T05:48:39;9.57;;;8.57;;
24008;SDS011;12217;50.792;4.372;2023-08-12T05:51:05;10.13;;;9.13;;
24008;SDS011;12217;50.792;4.372;2023-08-12T05:53:30;10.88;;;9.75;;
24008;SDS011;12217;50.792;4.372;2023-08-12T05:55:57;10.13;;;9.13;;
24008;SDS011;12217;50.792;4.372;2023-08-12T05:58:23;11.98;;;10.43;;
24008;SDS011;12217;50.792;4.372;2023-08-12T06:00:49;13.55;;;11.35;;
24008;SDS011;12217;50.792;4.372;2023-08-12T06:03:15;12.30;;;11.07;;
24008;SDS011;12217;50.792;4.372;2023-08-12T06:05:41;13.20;;;11.85;;
24008;SDS011;12217;50.792;4.372;2023-08-12T06:08:09;12.95;;;11.52;;
24008;SDS011;12217;50.792;4.372;2023-08-12T06:10:35;14.30;;;11.90;;
24008;SDS011;12217;50.792;4.372;2023-08-12T06:13:00;12.02;;;10.90;;
24008;SDS011;12217;50.792;4.372;2023-08-12T06:15:26;14.70;;;11.50;;
24008;SDS011;12217;50.792;4.372;2023-08-12T06:17:52;14.80;;;11.30;;
24008;SDS011;12217;50.792;4.372;2023-08-12T06:20:17;12.07;;;10.88;;
24008;SDS011;12217;50.792;4.372;2023-08-12T06:22:43;12.07;;;10.88;;
24008;SDS011;12217;50.792;4.372;2023-08-12T06:25:08;11.13;;;9.88;;
24008;SDS011;12217;50.792;4.372;2023-08-12T06:27:34;10.90;;;9.65;;
24008;SDS011;12217;50.792;4.372;2023-08-12T06:30:00;10.45;;;9.35;;
24008;SDS011;12217;50.792;4.372;2023-08-12T06:32:25;10.88;;;9.77;;
24008;SDS011;12217;50.792;4.372;2023-08-12T06:34:51;9.45;;;8.63;;
24008;SDS011;12217;50.792;4.372;2023-08-12T06:37:16;9.00;;;8.23;;
24008;SDS011;12217;50.792;4.372;2023-08-12T06:39:42;9.18;;;8.27;;
24008;SDS011;12217;50.792;4.372;2023-08-12T06:42:08;8.05;;;7.30;;
24008;SDS011;12217;50.792;4.372;2023-08-12T06:44:33;8.32;;;7.50;;
24008;SDS011;12217;50.792;4.372;2023-08-12T06:46:59;10.18;;;7.38;;
24008;SDS011;12217;50.792;4.372;2023-08-12T06:49:25;7.85;;;7.05;;
24008;SDS011;12217;50.792;4.372;2023-08-12T06:51:50;7.40;;;6.80;;
24008;SDS011;12217;50.792;4.372;2023-08-12T06:54:16;6.97;;;6.38;;
24008;SDS011;12217;50.792;4.372;2023-08-12T06:56:42;8.23;;;6.60;;
24008;SDS011;12217;50.792;4.372;2023-08-12T06:59:08;6.25;;;5.63;;
24008;SDS011;12217;50.792;4.372;2023-08-12T07:01:33;6.40;;;5.80;;
24008;SDS011;12217;50.792;4.372;2023-08-12T07:03:59;6.53;;;6.03;;
24008;SDS011;12217;50.792;4.372;2023-08-12T07:06:25;6.68;;;6.15;;
24008;SDS011;12217;50.792;4.372;2023-08-12T07:08:51;6.00;;;5.47;;
24008;SDS011;12217;50.792;4.372;2023-08-12T07:11:17;5.88;;;5.28;;
24008;SDS011;12217;50.792;4.372;2023-08-12T07:13:43;5.82;;;5.32;;
24008;SDS011;12217;50.792;4.372;2023-08-12T07:16:11;4.80;;;4.30;;
24008;SDS011;12217;50.792;4.372;2023-08-12T07:18:37;4.13;;;3.60;;
24008;SDS011;12217;50.792;4.372;2023-08-12T07:21:03;4.63;;;4.22;;
24008;SDS011;12217;50.792;4.372;2023-08-12T07:23:28;4.05;;;3.67;;
24008;SDS011;12217;50.792;4.372;2023-08-12T07:25:54;4.38;;;3.47;;
24008;SDS011;12217;50.792;4.372;2023-08-12T07:28:20;3.47;;;3.17;;
24008;SDS011;12217;50.792;4.372;2023-08-12T07:30:45;3.17;;;2.88;;
24008;SDS011;12217;50.792;4.372;2023-08-12T07:33:12;4.53;;;2.65;;
24008;SDS011;12217;50.792;4.372;2023-08-12T07:35:38;2.85;;;2.60;;
24008;SDS011;12217;50.792;4.372;2023-08-12T07:38:03;7.53;;;2.80;;
24008;SDS011;12217;50.792;4.372;2023-08-12T07:40:29;4.65;;;3.13;;
24008;SDS011;12217;50.792;4.372;2023-08-12T07:42:55;3.70;;;3.10;;
24008;SDS011;12217;50.792;4.372;2023-08-12T07:45:21;3.25;;;3.00;;
24008;SDS011;12217;50.792;4.372;2023-08-12T07:47:47;4.18;;;3.55;;
24008;SDS011;12217;50.792;4.372;2023-08-12T07:50:14;5.32;;;3.65;;
24008;SDS011;12217;50.792;4.372;2023-08-12T07:52:40;6.65;;;4.95;;
24008;SDS011;12217;50.792;4.372;2023-08-12T07:55:06;7.22;;;6.63;;
24008;SDS011;12217;50.792;4.372;2023-08-12T07:57:32;7.68;;;7.00;;
24008;SDS011;12217;50.792;4.372;2023-08-12T07:59:57;8.45;;;6.90;;
24008;SDS011;12217;50.792;4.372;2023-08-12T08:02:23;7.32;;;6.70;;
24008;SDS011;12217;50.792;4.372;2023-08-12T08:04:48;6.38;;;5.75;;
24008;SDS011;12217;50.792;4.372;2023-08-12T08:07:15;7.45;;;6.35;;
24008;SDS011;12217;50.792;4.372;2023-08-12T08:09:41;6.63;;;5.85;;
24008;SDS011;12217;50.792;4.372;2023-08-12T08:12:08;4.60;;;4.30;;
24008;SDS011;12217;50.792;4.372;2023-08-12T08:14:34;4.85;;;4.45;;
24008;SDS011;12217;50.792;4.372;2023-08-12T08:16:59;4.30;;;3.90;;
24008;SDS011;12217;50.792;4.372;2023-08-12T08:19:25;4.60;;;3.60;;
24008;SDS011;12217;50.792;4.372;2023-08-12T08:21:52;6.30;;;3.97;;
24008;SDS011;12217;50.792;4.372;2023-08-12T08:24:17;3.67;;;2.90;;
24008;SDS011;12217;50.792;4.372;2023-08-12T08:26:43;5.07;;;2.92;;
24008;SDS011;12217;50.792;4.372;2023-08-12T08:29:11;5.65;;;3.00;;
24008;SDS011;12217;50.792;4.372;2023-08-12T08:31:36;4.22;;;3.75;;
24008;SDS011;12217;50.792;4.372;2023-08-12T08:34:02;3.45;;;3.20;;
24008;SDS011;12217;50.792;4.372;2023-08-12T08:36:27;5.00;;;2.83;;
24008;SDS011;12217;50.792;4.372;2023-08-12T08:38:53;7.13;;;2.90;;
24008;SDS011;12217;50.792;4.372;2023-08-12T08:41:19;3.60;;;3.15;;
24008;SDS011;12217;50.792;4.372;2023-08-12T08:43:47;4.90;;;2.58;;
24008;SDS011;12217;50.792;4.372;2023-08-12T08:46:14;2.97;;;2.63;;
24008;SDS011;12217;50.792;4.372;2023-08-12T08:48:41;3.42;;;1.73;;
24008;SDS011;12217;50.792;4.372;2023-08-12T08:51:08;3.03;;;1.77;;
24008;SDS011;12217;50.792;4.372;2023-08-12T08:53:37;2.83;;;1.60;;
24008;SDS011;12217;50.792;4.372;2023-08-12T08:56:05;2.80;;;1.58;;
24008;SDS011;12217;50.792;4.372;2023-08-12T08:58:36;1.73;;;1.40;;
24008;SDS011;12217;50.792;4.372;2023-08-12T09:01:05;3.97;;;1.40;;
24008;SDS011;12217;50.792;4.372;2023-08-12T09:03:33;2.17;;;1.50;;
24008;SDS011;12217;50.792;4.372;2023-08-12T09:06:01;3.42;;;1.45;;
24008;SDS011;12217;50.792;4.372;2023-08-12T09:08:28;4.65;;;1.40;;
24008;SDS011;12217;50.792;4.372;2023-08-12T09:10:56;5.38;;;1.65;;
24008;SDS011;12217;50.792;4.372;2023-08-12T09:13:24;4.22;;;1.70;;
24008;SDS011;12217;50.792;4.372;2023-08-12T09:15:50;4.90;;;1.70;;
24008;SDS011;12217;50.792;4.372;2023-08-12T09:18:16;2.35;;;1.90;;
24008;SDS011;12217;50.792;4.372;2023-08-12T09:20:42;5.55;;;1.80;;
24008;SDS011;12217;50.792;4.372;2023-08-12T09:23:08;2.65;;;1.73;;
24008;SDS011;12217;50.792;4.372;2023-08-12T09:25:36;3.58;;;1.80;;
24008;SDS011;12217;50.792;4.372;2023-08-12T09:30:34;3.70;;;1.70;;
24008;SDS011;12217;50.792;4.372;2023-08-12T09:33:01;3.35;;;1.77;;
24008;SDS011;12217;50.792;4.372;2023-08-12T09:35:32;3.17;;;1.70;;
24008;SDS011;12217;50.792;4.372;2023-08-12T09:38:00;3.42;;;1.80;;
24008;SDS011;12217;50.792;4.372;2023-08-12T09:40:27;6.55;;;1.92;;
24008;SDS011;12217;50.792;4.372;2023-08-12T09:42:53;3.75;;;2.00;;
24008;SDS011;12217;50.792;4.372;2023-08-12T09:45:23;3.95;;;1.75;;
24008;SDS011;12217;50.792;4.372;2023-08-12T09:47:49;3.90;;;1.92;;
24008;SDS011;12217;50.792;4.372;2023-08-12T09:50:14;6.72;;;2.00;;
24008;SDS011;12217;50.792;4.372;2023-08-12T09:52:40;5.18;;;2.00;;
24008;SDS011;12217;50.792;4.372;2023-08-12T09:55:07;5.28;;;2.25;;
24008;SDS011;12217;50.792;4.372;2023-08-12T09:57:33;3.25;;;1.98;;
24008;SDS011;12217;50.792;4.372;2023-08-12T10:00:02;4.75;;;2.20;;
24008;SDS011;12217;50.792;4.372;2023-08-12T10:02:28;4.32;;;2.20;;
24008;SDS011;12217;50.792;4.372;2023-08-12T10:04:55;5.15;;;2.28;;
24008;SDS011;12217;50.792;4.372;2023-08-12T10:07:23;6.20;;;2.45;;
24008;SDS011;12217;50.792;4.372;2023-08-12T10:09:50;6.90;;;2.42;;
24008;SDS011;12217;50.792;4.372;2023-08-12T10:12:16;8.40;;;2.60;;
24008;SDS011;12217;50.792;4.372;2023-08-12T10:14:42;4.70;;;2.60;;
24008;SDS011;12217;50.792;4.372;2023-08-12T10:17:08;3.55;;;2.10;;
24008;SDS011;12217;50.792;4.372;2023-08-12T10:19:35;3.00;;;2.03;;
24008;SDS011;12217;50.792;4.372;2023-08-12T10:22:02;5.07;;;2.05;;
24008;SDS011;12217;50.792;4.372;2023-08-12T10:24:28;7.22;;;2.10;;
24008;SDS011;12217;50.792;4.372;2023-08-12T10:26:56;3.95;;;1.98;;
24008;SDS011;12217;50.792;4.372;2023-08-12T10:29:25;5.78;;;2.20;;
24008;SDS011;12217;50.792;4.372;2023-08-12T10:31:50;4.97;;;2.28;;
24008;SDS011;12217;50.792;4.372;2023-08-12T10:34:20;5.28;;;2.00;;
24008;SDS011;12217;50.792;4.372;2023-08-12T10:36:47;4.20;;;2.00;;
24008;SDS011;12217;50.792;4.372;2023-08-12T10:39:13;4.38;;;2.10;;
24008;SDS011;12217;50.792;4.372;2023-08-12T10:41:39;5.13;;;1.88;;
24008;SDS011;12217;50.792;4.372;2023-08-12T10:44:17;6.38;;;2.13;;
24008;SDS011;12217;50.792;4.372;2023-08-12T10:46:50;5.35;;;1.92;;
24008;SDS011;12217;50.792;4.372;2023-08-12T10:49:18;4.82;;;1.80;;
24008;SDS011;12217;50.792;4.372;2023-08-12T10:51:46;4.57;;;1.70;;
24008;SDS011;12217;50.792;4.372;2023-08-12T10:54:22;5.07;;;1.92;;
24008;SDS011;12217;50.792;4.372;2023-08-12T10:57:04;7.30;;;2.10;;
24008;SDS011;12217;50.792;4.372;2023-08-12T11:02:28;7.75;;;2.13;;
24008;SDS011;12217;50.792;4.372;2023-08-12T11:07:27;6.95;;;1.95;;
24008;SDS011;12217;50.792;4.372;2023-08-12T11:10:10;5.93;;;1.90;;
24008;SDS011;12217;50.792;4.372;2023-08-12T11:15:18;5.68;;;1.60;;
24008;SDS011;12217;50.792;4.372;2023-08-12T11:17:50;7.88;;;1.75;;
24008;SDS011;12217;50.792;4.372;2023-08-12T11:20:16;6.03;;;1.77;;
24008;SDS011;12217;50.792;4.372;2023-08-12T11:22:43;4.60;;;1.80;;
24008;SDS011;12217;50.792;4.372;2023-08-12T11:25:11;5.13;;;1.92;;
24008;SDS011;12217;50.792;4.372;2023-08-12T11:27:38;6.68;;;2.10;;
24008;SDS011;12217;50.792;4.372;2023-08-12T11:30:09;5.13;;;1.60;;
24008;SDS011;12217;50.792;4.372;2023-08-12T11:32:37;5.05;;;1.77;;
24008;SDS011;12217;50.792;4.372;2023-08-12T11:35:06;5.55;;;1.70;;
24008;SDS011;12217;50.792;4.372;2023-08-12T11:37:33;6.72;;;2.00;;
24008;SDS011;12217;50.792;4.372;2023-08-12T11:40:01;5.93;;;1.70;;
24008;SDS011;12217;50.792;4.372;2023-08-12T11:42:28;6.60;;;1.75;;
24008;SDS011;12217;50.792;4.372;2023-08-12T11:44:54;4.30;;;1.70;;
24008;SDS011;12217;50.792;4.372;2023-08-12T11:47:19;5.38;;;1.73;;
24008;SDS011;12217;50.792;4.372;2023-08-12T11:49:45;6.28;;;1.88;;
24008;SDS011;12217;50.792;4.372;2023-08-12T11:52:11;4.10;;;1.70;;
24008;SDS011;12217;50.792;4.372;2023-08-12T11:54:37;6.22;;;2.22;;
24008;SDS011;12217;50.792;4.372;2023-08-12T11:57:03;4.13;;;1.80;;
24008;SDS011;12217;50.792;4.372;2023-08-12T11:59:30;6.32;;;2.20;;
24008;SDS011;12217;50.792;4.372;2023-08-12T12:01:56;5.05;;;2.10;;
24008;SDS011;12217;50.792;4.372;2023-08-12T12:04:22;5.13;;;2.70;;
24008;SDS011;12217;50.792;4.372;2023-08-12T12:06:48;6.43;;;2.40;;
24008;SDS011;12217;50.792;4.372;2023-08-12T12:09:14;3.95;;;2.83;;
24008;SDS011;12217;50.792;4.372;2023-08-12T12:11:41;7.28;;;3.50;;
24008;SDS011;12217;50.792;4.372;2023-08-12T12:14:07;7.43;;;3.80;;
24008;SDS011;12217;50.792;4.372;2023-08-12T12:16:40;4.18;;;3.20;;
24008;SDS011;12217;50.792;4.372;2023-08-12T12:21:45;6.35;;;3.80;;
24008;SDS011;12217;50.792;4.372;2023-08-12T12:24:17;8.10;;;3.55;;
24008;SDS011;12217;50.792;4.372;2023-08-12T12:26:44;7.00;;;3.15;;
24008;SDS011;12217;50.792;4.372;2023-08-12T12:29:12;6.20;;;3.55;;
24008;SDS011;12217;50.792;4.372;2023-08-12T12:31:39;5.30;;;3.40;;
24008;SDS011;12217;50.792;4.372;2023-08-12T12:34:06;4.78;;;2.95;;
24008;SDS011;12217;50.792;4.372;2023-08-12T12:36:33;6.63;;;3.30;;
24008;SDS011;12217;50.792;4.372;2023-08-12T12:39:01;5.50;;;3.00;;
24008;SDS011;12217;50.792;4.372;2023-08-12T12:41:30;6.43;;;3.15;;
24008;SDS011;12217;50.792;4.372;2023-08-12T12:43:57;7.00;;;2.90;;
24008;SDS011;12217;50.792;4.372;2023-08-12T12:46:24;5.70;;;2.55;;
24008;SDS011;12217;50.792;4.372;2023-08-12T12:48:50;5.72;;;2.50;;
24008;SDS011;12217;50.792;4.372;2023-08-12T12:51:15;3.47;;;2.35;;
24008;SDS011;12217;50.792;4.372;2023-08-12T12:53:41;4.60;;;2.33;;
24008;SDS011;12217;50.792;4.372;2023-08-12T12:56:07;4.15;;;2.30;;
24008;SDS011;12217;50.792;4.372;2023-08-12T12:58:33;5.85;;;2.65;;
24008;SDS011;12217;50.792;4.372;2023-08-12T13:01:00;4.80;;;1.92;;
24008;SDS011;12217;50.792;4.372;2023-08-12T13:03:26;4.05;;;2.15;;
24008;SDS011;12217;50.792;4.372;2023-08-12T13:05:51;3.38;;;1.60;;
24008;SDS011;12217;50.792;4.372;2023-08-12T13:08:18;5.20;;;1.83;;
24008;SDS011;12217;50.792;4.372;2023-08-12T13:10:43;3.05;;;1.90;;
24008;SDS011;12217;50.792;4.372;2023-08-12T13:13:09;3.97;;;2.00;;
24008;SDS011;12217;50.792;4.372;2023-08-12T13:15:35;5.20;;;2.08;;
24008;SDS011;12217;50.792;4.372;2023-08-12T13:18:01;3.72;;;1.50;;
24008;SDS011;12217;50.792;4.372;2023-08-12T13:20:28;6.30;;;1.70;;
24008;SDS011;12217;50.792;4.372;2023-08-12T13:22:53;3.70;;;1.55;;
24008;SDS011;12217;50.792;4.372;2023-08-12T13:25:19;5.22;;;1.90;;
24008;SDS011;12217;50.792;4.372;2023-08-12T13:27:44;2.83;;;1.60;;
24008;SDS011;12217;50.792;4.372;2023-08-12T13:30:10;5.55;;;2.10;;
24008;SDS011;12217;50.792;4.372;2023-08-12T13:32:36;4.60;;;1.60;;
24008;SDS011;12217;50.792;4.372;2023-08-12T13:35:02;5.00;;;1.60;;
24008;SDS011;12217;50.792;4.372;2023-08-12T13:37:29;3.85;;;2.15;;
24008;SDS011;12217;50.792;4.372;2023-08-12T13:39:54;4.15;;;1.70;;
24008;SDS011;12217;50.792;4.372;2023-08-12T13:42:20;4.50;;;1.70;;
24008;SDS011;12217;50.792;4.372;2023-08-12T13:44:46;5.68;;;1.80;;
24008;SDS011;12217;50.792;4.372;2023-08-12T13:47:11;5.85;;;1.80;;
24008;SDS011;12217;50.792;4.372;2023-08-12T13:49:37;5.60;;;1.95;;
24008;SDS011;12217;50.792;4.372;2023-08-12T13:52:03;5.78;;;1.92;;
24008;SDS011;12217;50.792;4.372;2023-08-12T13:54:29;4.65;;;1.80;;
24008;SDS011;12217;50.792;4.372;2023-08-12T13:56:54;6.00;;;1.90;;
24008;SDS011;12217;50.792;4.372;2023-08-12T13:59:20;5.05;;;1.70;;
24008;SDS011;12217;50.792;4.372;2023-08-12T14:01:46;6.30;;;1.73;;
24008;SDS011;12217;50.792;4.372;2023-08-12T14:04:11;7.45;;;1.90;;
24008;SDS011;12217;50.792;4.372;2023-08-12T14:06:37;7.72;;;1.98;;
24008;SDS011;12217;50.792;4.372;2023-08-12T14:09:05;4.38;;;1.70;;
24008;SDS011;12217;50.792;4.372;2023-08-12T14:11:32;6.93;;;2.10;;
24008;SDS011;12217;50.792;4.372;2023-08-12T14:13:58;3.47;;;1.50;;
24008;SDS011;12217;50.792;4.372;2023-08-12T14:16:24;5.75;;;1.80;;
24008;SDS011;12217;50.792;4.372;2023-08-12T14:18:50;5.47;;;1.80;;
24008;SDS011;12217;50.792;4.372;2023-08-12T14:21:16;4.38;;;1.80;;
24008;SDS011;12217;50.792;4.372;2023-08-12T14:23:41;4.13;;;1.58;;
24008;SDS011;12217;50.792;4.372;2023-08-12T14:26:07;5.07;;;1.85;;
24008;SDS011;12217;50.792;4.372;2023-08-12T14:28:33;6.70;;;2.28;;
24008;SDS011;12217;50.792;4.372;2023-08-12T14:30:58;6.68;;;1.70;;
24008;SDS011;12217;50.792;4.372;2023-08-12T14:33:24;2.72;;;1.67;;
24008;SDS011;12217;50.792;4.372;2023-08-12T14:35:50;5.40;;;1.98;;
24008;SDS011;12217;50.792;4.372;2023-08-12T14:38:17;4.88;;;2.00;;
24008;SDS011;12217;50.792;4.372;2023-08-12T14:40:47;5.28;;;2.00;;
24008;SDS011;12217;50.792;4.372;2023-08-12T14:43:13;5.38;;;1.85;;
24008;SDS011;12217;50.792;4.372;2023-08-12T14:45:38;5.95;;;1.90;;
24008;SDS011;12217;50.792;4.372;2023-08-12T14:48:04;5.00;;;1.75;;
24008;SDS011;12217;50.792;4.372;2023-08-12T14:50:30;4.65;;;1.80;;
24008;SDS011;12217;50.792;4.372;2023-08-12T14:52:56;5.18;;;1.92;;
24008;SDS011;12217;50.792;4.372;2023-08-12T14:55:21;6.75;;;1.80;;
24008;SDS011;12217;50.792;4.372;2023-08-12T14:57:47;6.07;;;1.80;;